sensor_id;sensor_type;location;lat;lon;timestamp;temperature;humidity
45619;DHT22;31343;47.520;19.144;2024-03-17T00:00:31;11.10;99.90
45619;DHT22;31343;47.520;19.144;2024-03-17T00:02:57;11.20;99.90
45619;DHT22;31343;47.520;19.144;2024-03-17T00:05:22;11.30;99.90
45619;DHT22;31343;47.520;19.144;2024-03-17T00:07:48;11.30;99.90
45619;DHT22;31343;47.520;19.144;2024-03-17T00:10:14;11.40;99.90
45619;DHT22;31343;47.520;19.144;2024-03-17T00:12:41;11.40;99.90
45619;DHT22;31343;47.520;19.144;2024-03-17T00:15:07;11.50;99.90
45619;DHT22;31343;47.520;19.144;2024-03-17T00:17:33;11.50;99.90
45619;DHT22;31343;47.520;19.144;2024-03-17T00:20:03;11.60;99.90
45619;DHT22;31343;47.520;19.144;2024-03-17T00:22:35;11.60;99.90
45619;DHT22;31343;47.520;19.144;2024-03-17T00:25:05;11.60;99.90
45619;DHT22;31343;47.520;19.144;2024-03-17T00:27:31;11.60;99.90
45619;DHT22;31343;47.520;19.144;2024-03-17T00:29:56;11.60;99.90
45619;DHT22;31343;47.520;19.144;2024-03-17T00:32:22;11.70;99.90
45619;DHT22;31343;47.520;19.144;2024-03-17T00:34:49;11.60;99.90
45619;DHT22;31343;47.520;19.144;2024-03-17T00:37:14;11.60;99.90
45619;DHT22;31343;47.520;19.144;2024-03-17T00:39:40;11.60;99.90
45619;DHT22;31343;47.520;19.144;2024-03-17T00:42:06;11.50;99.90
45619;DHT22;31343;47.520;19.144;2024-03-17T00:44:32;11.60;99.90
45619;DHT22;31343;47.520;19.144;2024-03-17T00:46:57;11.60;99.90
45619;DHT22;31343;47.520;19.144;2024-03-17T00:49:23;11.60;99.90
45619;DHT22;31343;47.520;19.144;2024-03-17T00:51:49;11.60;99.90
45619;DHT22;31343;47.520;19.144;2024-03-17T00:54:15;11.60;99.90
45619;DHT22;31343;47.520;19.144;2024-03-17T00:56:43;11.60;99.90
45619;DHT22;31343;47.520;19.144;2024-03-17T00:59:09;11.60;99.90
45619;DHT22;31343;47.520;19.144;2024-03-17T01:01:35;11.70;99.90
45619;DHT22;31343;47.520;19.144;2024-03-17T01:04:00;11.70;99.90
45619;DHT22;31343;47.520;19.144;2024-03-17T01:06:26;11.70;99.90
45619;DHT22;31343;47.520;19.144;2024-03-17T01:08:52;11.70;99.90
45619;DHT22;31343;47.520;19.144;2024-03-17T01:11:18;11.70;99.90
45619;DHT22;31343;47.520;19.144;2024-03-17T01:13:47;11.70;99.90
45619;DHT22;31343;47.520;19.144;2024-03-17T01:16:13;11.60;99.90
45619;DHT22;31343;47.520;19.144;2024-03-17T01:18:39;11.60;99.90
45619;DHT22;31343;47.520;19.144;2024-03-17T01:21:06;11.60;99.90
45619;DHT22;31343;47.520;19.144;2024-03-17T01:23:32;11.60;99.90
45619;DHT22;31343;47.520;19.144;2024-03-17T01:25:58;11.60;99.90
45619;DHT22;31343;47.520;19.144;2024-03-17T01:28:23;11.60;99.90
45619;DHT22;31343;47.520;19.144;2024-03-17T01:30:49;11.50;99.90
45619;DHT22;31343;47.520;19.144;2024-03-17T01:33:15;11.60;99.90
45619;DHT22;31343;47.520;19.144;2024-03-17T01:35:43;11.60;99.90
45619;DHT22;31343;47.520;19.144;2024-03-17T01:38:08;11.60;99.90
45619;DHT22;31343;47.520;19.144;2024-03-17T01:40:36;11.50;99.90
45619;DHT22;31343;47.520;19.144;2024-03-17T01:43:01;11.60;99.90
45619;DHT22;31343;47.520;19.144;2024-03-17T01:45:32;11.50;99.90
45619;DHT22;31343;47.520;19.144;2024-03-17T01:47:59;11.50;99.90
45619;DHT22;31343;47.520;19.144;2024-03-17T01:50:36;11.60;99.90
45619;DHT22;31343;47.520;19.144;2024-03-17T01:53:05;11.60;99.90
45619;DHT22;31343;47.520;19.144;2024-03-17T01:55:36;11.50;99.90
45619;DHT22;31343;47.520;19.144;2024-03-17T01:58:03;11.60;99.90
45619;DHT22;31343;47.520;19.144;2024-03-17T02:00:29;11.50;99.90
45619;DHT22;31343;47.520;19.144;2024-03-17T02:02:57;11.50;99.90
45619;DHT22;31343;47.520;19.144;2024-03-17T02:05:22;11.40;99.90
45619;DHT22;31343;47.520;19.144;2024-03-17T02:07:48;11.40;99.90
45619;DHT22;31343;47.520;19.144;2024-03-17T02:10:15;11.30;99.90
45619;DHT22;31343;47.520;19.144;2024-03-17T02:12:40;11.30;99.90
45619;DHT22;31343;47.520;19.144;2024-03-17T02:15:06;11.30;99.90
45619;DHT22;31343;47.520;19.144;2024-03-17T02:17:33;11.20;99.90
45619;DHT22;31343;47.520;19.144;2024-03-17T02:19:59;11.20;99.90
45619;DHT22;31343;47.520;19.144;2024-03-17T02:22:28;11.20;99.90
45619;DHT22;31343;47.520;19.144;2024-03-17T02:24:54;11.20;99.90
45619;DHT22;31343;47.520;19.144;2024-03-17T02:27:20;11.10;99.90
45619;DHT22;31343;47.520;19.144;2024-03-17T02:29:45;11.10;99.90
45619;DHT22;31343;47.520;19.144;2024-03-17T02:32:11;11.10;99.90
45619;DHT22;31343;47.520;19.144;2024-03-17T02:34:38;11.10;99.90
45619;DHT22;31343;47.520;19.144;2024-03-17T02:37:06;11.10;99.90
45619;DHT22;31343;47.520;19.144;2024-03-17T02:39:33;11.10;99.90
45619;DHT22;31343;47.520;19.144;2024-03-17T02:42:04;11.10;99.90
45619;DHT22;31343;47.520;19.144;2024-03-17T02:44:33;11.00;99.90
45619;DHT22;31343;47.520;19.144;2024-03-17T02:47:00;11.00;99.90
45619;DHT22;31343;47.520;19.144;2024-03-17T02:49:27;11.00;99.90
45619;DHT22;31343;47.520;19.144;2024-03-17T02:51:55;11.00;99.90
45619;DHT22;31343;47.520;19.144;2024-03-17T02:54:22;11.00;99.90
45619;DHT22;31343;47.520;19.144;2024-03-17T02:56:50;10.90;99.90
45619;DHT22;31343;47.520;19.144;2024-03-17T02:59:16;10.90;99.90
45619;DHT22;31343;47.520;19.144;2024-03-17T03:01:42;10.80;99.90
45619;DHT22;31343;47.520;19.144;2024-03-17T03:04:08;10.80;99.90
45619;DHT22;31343;47.520;19.144;2024-03-17T03:06:34;10.80;99.90
45619;DHT22;31343;47.520;19.144;2024-03-17T03:09:00;10.80;99.90
45619;DHT22;31343;47.520;19.144;2024-03-17T03:11:25;10.80;99.90
45619;DHT22;31343;47.520;19.144;2024-03-17T03:13:51;10.80;99.90
45619;DHT22;31343;47.520;19.144;2024-03-17T03:16:17;10.70;99.90
45619;DHT22;31343;47.520;19.144;2024-03-17T03:18:44;10.70;99.90
45619;DHT22;31343;47.520;19.144;2024-03-17T03:21:11;10.60;99.90
45619;DHT22;31343;47.520;19.144;2024-03-17T03:23:37;10.50;99.90
45619;DHT22;31343;47.520;19.144;2024-03-17T03:26:03;10.50;99.90
45619;DHT22;31343;47.520;19.144;2024-03-17T03:28:33;10.40;99.90
45619;DHT22;31343;47.520;19.144;2024-03-17T03:30:59;10.50;99.90
45619;DHT22;31343;47.520;19.144;2024-03-17T03:33:25;10.40;99.90
45619;DHT22;31343;47.520;19.144;2024-03-17T03:35:50;10.40;99.90
45619;DHT22;31343;47.520;19.144;2024-03-17T03:38:17;10.40;99.90
45619;DHT22;31343;47.520;19.144;2024-03-17T03:40:43;10.50;99.90
45619;DHT22;31343;47.520;19.144;2024-03-17T03:43:09;10.40;99.90
45619;DHT22;31343;47.520;19.144;2024-03-17T03:45:36;10.30;99.90
45619;DHT22;31343;47.520;19.144;2024-03-17T03:48:02;10.30;99.90
45619;DHT22;31343;47.520;19.144;2024-03-17T03:50:28;10.20;99.90
45619;DHT22;31343;47.520;19.144;2024-03-17T03:52:54;10.30;99.90
45619;DHT22;31343;47.520;19.144;2024-03-17T03:55:20;10.30;99.90
45619;DHT22;31343;47.520;19.144;2024-03-17T03:57:46;10.30;99.90
45619;DHT22;31343;47.520;19.144;2024-03-17T04:00:14;10.30;99.90
45619;DHT22;31343;47.520;19.144;2024-03-17T04:02:40;10.20;99.90
45619;DHT22;31343;47.520;19.144;2024-03-17T04:05:07;10.20;99.90
45619;DHT22;31343;47.520;19.144;2024-03-17T04:07:33;10.20;99.90
45619;DHT22;31343;47.520;19.144;2024-03-17T04:10:00;10.10;99.90
45619;DHT22;31343;47.520;19.144;2024-03-17T04:12:27;10.10;99.90
45619;DHT22;31343;47.520;19.144;2024-03-17T04:14:53;10.10;99.90
45619;DHT22;31343;47.520;19.144;2024-03-17T04:17:20;10.00;99.90
45619;DHT22;31343;47.520;19.144;2024-03-17T04:19:47;10.10;99.90
45619;DHT22;31343;47.520;19.144;2024-03-17T04:22:17;10.00;99.90
45619;DHT22;31343;47.520;19.144;2024-03-17T04:24:44;10.00;99.90
45619;DHT22;31343;47.520;19.144;2024-03-17T04:27:10;10.00;99.90
45619;DHT22;31343;47.520;19.144;2024-03-17T04:29:37;9.90;99.90
45619;DHT22;31343;47.520;19.144;2024-03-17T04:32:03;9.90;99.90
45619;DHT22;31343;47.520;19.144;2024-03-17T04:34:30;9.90;99.90
45619;DHT22;31343;47.520;19.144;2024-03-17T04:36:59;9.90;99.90
45619;DHT22;31343;47.520;19.144;2024-03-17T04:39:25;9.90;99.90
45619;DHT22;31343;47.520;19.144;2024-03-17T04:41:51;9.80;99.90
45619;DHT22;31343;47.520;19.144;2024-03-17T04:44:17;9.80;99.90
45619;DHT22;31343;47.520;19.144;2024-03-17T04:46:43;9.80;99.90
45619;DHT22;31343;47.520;19.144;2024-03-17T04:49:09;9.80;99.90
45619;DHT22;31343;47.520;19.144;2024-03-17T04:51:35;9.70;99.90
45619;DHT22;31343;47.520;19.144;2024-03-17T04:54:01;9.70;99.90
45619;DHT22;31343;47.520;19.144;2024-03-17T04:56:31;9.60;99.90
45619;DHT22;31343;47.520;19.144;2024-03-17T04:58:57;9.70;99.90
45619;DHT22;31343;47.520;19.144;2024-03-17T05:01:22;9.60;99.90
45619;DHT22;31343;47.520;19.144;2024-03-17T05:03:51;9.60;99.90
45619;DHT22;31343;47.520;19.144;2024-03-17T05:06:17;9.70;99.90
45619;DHT22;31343;47.520;19.144;2024-03-17T05:08:42;9.70;99.90
45619;DHT22;31343;47.520;19.144;2024-03-17T05:11:09;9.70;99.90
45619;DHT22;31343;47.520;19.144;2024-03-17T05:13:35;9.60;99.90
45619;DHT22;31343;47.520;19.144;2024-03-17T05:16:01;9.60;99.90
45619;DHT22;31343;47.520;19.144;2024-03-17T05:18:29;9.60;99.90
45619;DHT22;31343;47.520;19.144;2024-03-17T05:21:07;9.60;99.90
45619;DHT22;31343;47.520;19.144;2024-03-17T05:23:36;9.60;99.90
45619;DHT22;31343;47.520;19.144;2024-03-17T05:26:03;9.50;99.90
45619;DHT22;31343;47.520;19.144;2024-03-17T05:28:32;9.60;99.90
45619;DHT22;31343;47.520;19.144;2024-03-17T05:30:58;9.70;99.90
45619;DHT22;31343;47.520;19.144;2024-03-17T05:33:25;9.70;99.90
45619;DHT22;31343;47.520;19.144;2024-03-17T05:35:55;9.90;99.90
45619;DHT22;31343;47.520;19.144;2024-03-17T05:38:28;10.00;99.90
45619;DHT22;31343;47.520;19.144;2024-03-17T05:41:07;10.20;99.90
45619;DHT22;31343;47.520;19.144;2024-03-17T05:43:38;10.50;99.90
45619;DHT22;31343;47.520;19.144;2024-03-17T05:46:08;10.80;99.90
45619;DHT22;31343;47.520;19.144;2024-03-17T05:48:38;10.80;99.90
45619;DHT22;31343;47.520;19.144;2024-03-17T05:51:08;11.00;99.90
45619;DHT22;31343;47.520;19.144;2024-03-17T05:53:34;11.70;99.90
45619;DHT22;31343;47.520;19.144;2024-03-17T05:56:03;12.10;99.90
45619;DHT22;31343;47.520;19.144;2024-03-17T05:58:29;12.50;99.90
45619;DHT22;31343;47.520;19.144;2024-03-17T06:00:55;13.10;99.80
45619;DHT22;31343;47.520;19.144;2024-03-17T06:03:21;13.40;98.00
45619;DHT22;31343;47.520;19.144;2024-03-17T06:05:48;13.40;97.90
45619;DHT22;31343;47.520;19.144;2024-03-17T06:08:14;13.60;97.40
45619;DHT22;31343;47.520;19.144;2024-03-17T06:10:45;13.70;96.80
45619;DHT22;31343;47.520;19.144;2024-03-17T06:13:12;13.90;96.20
45619;DHT22;31343;47.520;19.144;2024-03-17T06:15:39;14.60;95.20
45619;DHT22;31343;47.520;19.144;2024-03-17T06:18:05;14.30;95.00
45619;DHT22;31343;47.520;19.144;2024-03-17T06:20:34;14.70;94.80
45619;DHT22;31343;47.520;19.144;2024-03-17T06:23:00;15.60;93.30
45619;DHT22;31343;47.520;19.144;2024-03-17T06:25:26;16.20;92.20
45619;DHT22;31343;47.520;19.144;2024-03-17T06:27:52;16.90;91.40
45619;DHT22;31343;47.520;19.144;2024-03-17T06:30:18;17.30;89.60
45619;DHT22;31343;47.520;19.144;2024-03-17T06:32:45;17.60;89.10
45619;DHT22;31343;47.520;19.144;2024-03-17T06:35:12;18.20;86.60
45619;DHT22;31343;47.520;19.144;2024-03-17T06:37:37;18.60;84.50
45619;DHT22;31343;47.520;19.144;2024-03-17T06:40:06;18.40;84.20
45619;DHT22;31343;47.520;19.144;2024-03-17T06:42:32;18.60;83.80
45619;DHT22;31343;47.520;19.144;2024-03-17T06:44:58;18.50;83.30
45619;DHT22;31343;47.520;19.144;2024-03-17T06:47:24;19.00;82.30
45619;DHT22;31343;47.520;19.144;2024-03-17T06:49:51;19.00;81.50
45619;DHT22;31343;47.520;19.144;2024-03-17T06:52:16;19.20;80.90
45619;DHT22;31343;47.520;19.144;2024-03-17T06:54:42;19.90;78.80
45619;DHT22;31343;47.520;19.144;2024-03-17T06:57:08;19.10;79.80
45619;DHT22;31343;47.520;19.144;2024-03-17T06:59:34;18.90;79.70
45619;DHT22;31343;47.520;19.144;2024-03-17T07:02:00;19.20;79.00
45619;DHT22;31343;47.520;19.144;2024-03-17T07:04:26;19.60;78.40
45619;DHT22;31343;47.520;19.144;2024-03-17T07:06:52;19.70;77.10
45619;DHT22;31343;47.520;19.144;2024-03-17T07:09:18;20.10;76.80
45619;DHT22;31343;47.520;19.144;2024-03-17T07:11:43;19.90;76.10
45619;DHT22;31343;47.520;19.144;2024-03-17T07:14:12;20.20;75.60
45619;DHT22;31343;47.520;19.144;2024-03-17T07:16:38;20.30;75.00
45619;DHT22;31343;47.520;19.144;2024-03-17T07:19:04;20.80;74.50
45619;DHT22;31343;47.520;19.144;2024-03-17T07:21:30;20.90;73.40
45619;DHT22;31343;47.520;19.144;2024-03-17T07:23:57;20.30;73.00
45619;DHT22;31343;47.520;19.144;2024-03-17T07:26:25;19.60;73.60
45619;DHT22;31343;47.520;19.144;2024-03-17T07:28:51;19.60;74.60
45619;DHT22;31343;47.520;19.144;2024-03-17T07:31:17;19.50;74.10
45619;DHT22;31343;47.520;19.144;2024-03-17T07:33:42;20.00;74.00
45619;DHT22;31343;47.520;19.144;2024-03-17T07:36:08;19.80;74.30
45619;DHT22;31343;47.520;19.144;2024-03-17T07:38:35;19.40;74.80
45619;DHT22;31343;47.520;19.144;2024-03-17T07:41:06;18.30;75.80
45619;DHT22;31343;47.520;19.144;2024-03-17T07:43:36;18.10;77.30
45619;DHT22;31343;47.520;19.144;2024-03-17T07:48:34;17.40;78.10
45619;DHT22;31343;47.520;19.144;2024-03-17T07:51:01;16.80;79.40
45619;DHT22;31343;47.520;19.144;2024-03-17T07:53:32;16.70;79.80
45619;DHT22;31343;47.520;19.144;2024-03-17T07:56:03;16.60;81.10
45619;DHT22;31343;47.520;19.144;2024-03-17T07:58:30;16.90;81.00
45619;DHT22;31343;47.520;19.144;2024-03-17T08:00:59;17.20;79.80
45619;DHT22;31343;47.520;19.144;2024-03-17T08:03:38;17.10;80.60
45619;DHT22;31343;47.520;19.144;2024-03-17T08:06:06;17.10;80.80
45619;DHT22;31343;47.520;19.144;2024-03-17T08:08:33;17.10;80.10
45619;DHT22;31343;47.520;19.144;2024-03-17T08:10:59;17.00;80.10
45619;DHT22;31343;47.520;19.144;2024-03-17T08:13:25;17.20;79.20
45619;DHT22;31343;47.520;19.144;2024-03-17T08:16:02;17.40;79.50
45619;DHT22;31343;47.520;19.144;2024-03-17T08:18:28;17.80;78.00
45619;DHT22;31343;47.520;19.144;2024-03-17T08:20:54;18.10;76.60
45619;DHT22;31343;47.520;19.144;2024-03-17T08:23:20;18.30;76.90
45619;DHT22;31343;47.520;19.144;2024-03-17T08:25:56;18.30;76.40
45619;DHT22;31343;47.520;19.144;2024-03-17T08:28:23;18.60;77.80
45619;DHT22;31343;47.520;19.144;2024-03-17T08:30:58;19.00;76.10
45619;DHT22;31343;47.520;19.144;2024-03-17T08:33:24;18.90;75.50
45619;DHT22;31343;47.520;19.144;2024-03-17T08:36:06;18.40;75.60
45619;DHT22;31343;47.520;19.144;2024-03-17T08:38:33;17.50;77.30
45619;DHT22;31343;47.520;19.144;2024-03-17T08:41:04;17.20;79.20
45619;DHT22;31343;47.520;19.144;2024-03-17T08:43:30;17.00;80.70
45619;DHT22;31343;47.520;19.144;2024-03-17T08:48:27;16.10;81.90
45619;DHT22;31343;47.520;19.144;2024-03-17T08:50:55;15.50;80.20
45619;DHT22;31343;47.520;19.144;2024-03-17T08:53:22;15.40;82.70
45619;DHT22;31343;47.520;19.144;2024-03-17T08:55:49;15.30;81.40
45619;DHT22;31343;47.520;19.144;2024-03-17T08:58:15;15.40;80.90
45619;DHT22;31343;47.520;19.144;2024-03-17T09:00:41;15.20;80.70
45619;DHT22;31343;47.520;19.144;2024-03-17T09:03:07;15.20;80.90
45619;DHT22;31343;47.520;19.144;2024-03-17T09:05:38;14.90;81.60
45619;DHT22;31343;47.520;19.144;2024-03-17T09:08:04;14.90;83.10
45619;DHT22;31343;47.520;19.144;2024-03-17T09:10:30;14.90;82.60
45619;DHT22;31343;47.520;19.144;2024-03-17T09:12:56;15.00;83.50
45619;DHT22;31343;47.520;19.144;2024-03-17T09:15:22;15.00;82.40
45619;DHT22;31343;47.520;19.144;2024-03-17T09:17:48;15.00;81.60
45619;DHT22;31343;47.520;19.144;2024-03-17T09:20:13;15.00;81.10
45619;DHT22;31343;47.520;19.144;2024-03-17T09:22:43;15.10;82.30
45619;DHT22;31343;47.520;19.144;2024-03-17T09:25:09;15.10;82.50
45619;DHT22;31343;47.520;19.144;2024-03-17T09:27:35;14.70;84.00
45619;DHT22;31343;47.520;19.144;2024-03-17T09:30:05;14.80;84.40
45619;DHT22;31343;47.520;19.144;2024-03-17T09:32:40;15.00;83.00
45619;DHT22;31343;47.520;19.144;2024-03-17T09:35:06;15.10;81.30
45619;DHT22;31343;47.520;19.144;2024-03-17T09:37:32;14.90;81.10
45619;DHT22;31343;47.520;19.144;2024-03-17T09:39:58;14.80;82.70
45619;DHT22;31343;47.520;19.144;2024-03-17T09:42:28;14.80;82.90
45619;DHT22;31343;47.520;19.144;2024-03-17T09:44:54;14.90;82.00
45619;DHT22;31343;47.520;19.144;2024-03-17T09:47:22;15.00;81.20
45619;DHT22;31343;47.520;19.144;2024-03-17T09:49:49;15.00;81.60
45619;DHT22;31343;47.520;19.144;2024-03-17T09:52:21;14.90;81.10
45619;DHT22;31343;47.520;19.144;2024-03-17T09:55:13;14.50;82.10
45619;DHT22;31343;47.520;19.144;2024-03-17T09:57:40;14.60;82.30
45619;DHT22;31343;47.520;19.144;2024-03-17T10:00:13;14.80;81.00
45619;DHT22;31343;47.520;19.144;2024-03-17T10:02:47;14.90;82.40
45619;DHT22;31343;47.520;19.144;2024-03-17T10:05:24;15.00;80.00
45619;DHT22;31343;47.520;19.144;2024-03-17T10:07:51;14.90;78.90
45619;DHT22;31343;47.520;19.144;2024-03-17T10:10:18;14.80;79.40
45619;DHT22;31343;47.520;19.144;2024-03-17T10:12:49;14.90;80.40
45619;DHT22;31343;47.520;19.144;2024-03-17T10:15:16;15.10;79.20
45619;DHT22;31343;47.520;19.144;2024-03-17T10:17:43;15.10;78.50
45619;DHT22;31343;47.520;19.144;2024-03-17T10:20:19;15.00;79.30
45619;DHT22;31343;47.520;19.144;2024-03-17T10:23:06;14.90;78.50
45619;DHT22;31343;47.520;19.144;2024-03-17T10:25:38;14.70;78.50
45619;DHT22;31343;47.520;19.144;2024-03-17T10:28:13;14.70;79.90
45619;DHT22;31343;47.520;19.144;2024-03-17T10:30:40;15.00;78.70
45619;DHT22;31343;47.520;19.144;2024-03-17T10:33:06;15.20;78.30
45619;DHT22;31343;47.520;19.144;2024-03-17T10:35:37;15.20;79.50
45619;DHT22;31343;47.520;19.144;2024-03-17T10:38:05;15.10;78.80
45619;DHT22;31343;47.520;19.144;2024-03-17T10:40:33;15.20;79.80
45619;DHT22;31343;47.520;19.144;2024-03-17T10:43:02;15.10;79.60
45619;DHT22;31343;47.520;19.144;2024-03-17T10:45:28;15.20;78.90
45619;DHT22;31343;47.520;19.144;2024-03-17T10:48:02;15.20;77.50
45619;DHT22;31343;47.520;19.144;2024-03-17T10:50:31;15.30;76.60
45619;DHT22;31343;47.520;19.144;2024-03-17T10:53:02;15.30;77.60
45619;DHT22;31343;47.520;19.144;2024-03-17T10:55:32;15.30;76.70
45619;DHT22;31343;47.520;19.144;2024-03-17T10:58:04;15.30;76.70
45619;DHT22;31343;47.520;19.144;2024-03-17T11:00:34;15.20;77.30
45619;DHT22;31343;47.520;19.144;2024-03-17T11:03:01;15.40;78.50
45619;DHT22;31343;47.520;19.144;2024-03-17T11:05:28;15.60;76.80
45619;DHT22;31343;47.520;19.144;2024-03-17T11:07:55;16.10;77.50
45619;DHT22;31343;47.520;19.144;2024-03-17T11:10:33;16.70;73.90
45619;DHT22;31343;47.520;19.144;2024-03-17T11:13:01;17.20;73.80
45619;DHT22;31343;47.520;19.144;2024-03-17T11:20:35;17.30;71.10
45619;DHT22;31343;47.520;19.144;2024-03-17T11:23:03;17.50;70.50
45619;DHT22;31343;47.520;19.144;2024-03-17T11:28:08;18.00;70.90
45619;DHT22;31343;47.520;19.144;2024-03-17T11:30:49;18.30;69.20
45619;DHT22;31343;47.520;19.144;2024-03-17T11:39:07;19.80;67.00
45619;DHT22;31343;47.520;19.144;2024-03-17T11:41:43;20.10;65.80
45619;DHT22;31343;47.520;19.144;2024-03-17T11:47:04;21.60;62.80
45619;DHT22;31343;47.520;19.144;2024-03-17T11:49:34;21.70;60.80
45619;DHT22;31343;47.520;19.144;2024-03-17T11:52:04;21.60;59.70
45619;DHT22;31343;47.520;19.144;2024-03-17T11:54:34;21.60;60.30
45619;DHT22;31343;47.520;19.144;2024-03-17T11:57:11;21.90;60.50
45619;DHT22;31343;47.520;19.144;2024-03-17T11:59:38;21.90;59.70
45619;DHT22;31343;47.520;19.144;2024-03-17T12:04:56;21.70;58.60
45619;DHT22;31343;47.520;19.144;2024-03-17T12:07:24;22.00;58.10
45619;DHT22;31343;47.520;19.144;2024-03-17T12:09:52;22.00;57.70
45619;DHT22;31343;47.520;19.144;2024-03-17T12:12:26;22.20;58.10
45619;DHT22;31343;47.520;19.144;2024-03-17T12:15:00;22.40;57.30
45619;DHT22;31343;47.520;19.144;2024-03-17T12:17:26;22.60;56.20
45619;DHT22;31343;47.520;19.144;2024-03-17T12:19:53;22.90;56.30
45619;DHT22;31343;47.520;19.144;2024-03-17T12:22:23;22.70;55.10
45619;DHT22;31343;47.520;19.144;2024-03-17T12:24:51;22.80;55.70
45619;DHT22;31343;47.520;19.144;2024-03-17T12:27:24;23.00;55.10
45619;DHT22;31343;47.520;19.144;2024-03-17T12:29:54;23.10;55.10
45619;DHT22;31343;47.520;19.144;2024-03-17T12:32:22;23.00;54.30
45619;DHT22;31343;47.520;19.144;2024-03-17T12:34:51;22.40;55.00
45619;DHT22;31343;47.520;19.144;2024-03-17T12:37:19;23.10;52.90
45619;DHT22;31343;47.520;19.144;2024-03-17T12:39:46;23.60;52.20
45619;DHT22;31343;47.520;19.144;2024-03-17T12:42:16;23.80;52.00
45619;DHT22;31343;47.520;19.144;2024-03-17T12:47:20;22.90;52.80
45619;DHT22;31343;47.520;19.144;2024-03-17T12:49:47;23.00;51.90
45619;DHT22;31343;47.520;19.144;2024-03-17T12:52:29;22.50;51.50
45619;DHT22;31343;47.520;19.144;2024-03-17T12:55:04;22.80;52.30
45619;DHT22;31343;47.520;19.144;2024-03-17T12:58:04;22.60;52.00
45619;DHT22;31343;47.520;19.144;2024-03-17T13:01:02;22.50;52.00
45619;DHT22;31343;47.520;19.144;2024-03-17T13:03:37;22.30;52.20
45619;DHT22;31343;47.520;19.144;2024-03-17T13:06:05;22.20;52.60
45619;DHT22;31343;47.520;19.144;2024-03-17T13:08:34;22.10;51.40
45619;DHT22;31343;47.520;19.144;2024-03-17T13:11:01;22.60;51.00
45619;DHT22;31343;47.520;19.144;2024-03-17T13:13:29;22.80;50.30
45619;DHT22;31343;47.520;19.144;2024-03-17T13:15:55;22.50;49.60
45619;DHT22;31343;47.520;19.144;2024-03-17T13:18:21;22.30;50.70
45619;DHT22;31343;47.520;19.144;2024-03-17T13:20:47;22.50;50.80
45619;DHT22;31343;47.520;19.144;2024-03-17T13:23:17;22.90;51.10
45619;DHT22;31343;47.520;19.144;2024-03-17T13:25:43;22.70;49.50
45619;DHT22;31343;47.520;19.144;2024-03-17T13:28:10;22.40;49.50
45619;DHT22;31343;47.520;19.144;2024-03-17T13:30:36;22.40;49.30
45619;DHT22;31343;47.520;19.144;2024-03-17T13:33:03;22.10;49.60
45619;DHT22;31343;47.520;19.144;2024-03-17T13:35:34;21.90;49.40
45619;DHT22;31343;47.520;19.144;2024-03-17T13:38:00;21.50;49.50
45619;DHT22;31343;47.520;19.144;2024-03-17T13:40:28;20.90;50.60
45619;DHT22;31343;47.520;19.144;2024-03-17T13:42:55;20.20;52.00
45619;DHT22;31343;47.520;19.144;2024-03-17T13:45:26;19.80;52.70
45619;DHT22;31343;47.520;19.144;2024-03-17T13:47:58;19.60;52.70
45619;DHT22;31343;47.520;19.144;2024-03-17T13:50:24;19.30;53.10
45619;DHT22;31343;47.520;19.144;2024-03-17T13:52:51;18.70;53.40
45619;DHT22;31343;47.520;19.144;2024-03-17T13:55:22;18.30;53.70
45619;DHT22;31343;47.520;19.144;2024-03-17T13:57:53;17.90;55.10
45619;DHT22;31343;47.520;19.144;2024-03-17T14:00:20;17.50;55.20
45619;DHT22;31343;47.520;19.144;2024-03-17T14:02:48;17.50;56.40
45619;DHT22;31343;47.520;19.144;2024-03-17T14:05:16;17.50;56.60
45619;DHT22;31343;47.520;19.144;2024-03-17T14:07:42;17.50;56.50
45619;DHT22;31343;47.520;19.144;2024-03-17T14:10:09;17.10;57.20
45619;DHT22;31343;47.520;19.144;2024-03-17T14:12:36;16.90;57.80
45619;DHT22;31343;47.520;19.144;2024-03-17T14:15:03;16.60;58.10
45619;DHT22;31343;47.520;19.144;2024-03-17T14:17:30;16.40;58.20
45619;DHT22;31343;47.520;19.144;2024-03-17T14:19:56;16.30;57.90
45619;DHT22;31343;47.520;19.144;2024-03-17T14:22:22;16.00;57.60
45619;DHT22;31343;47.520;19.144;2024-03-17T14:24:48;15.80;58.40
45619;DHT22;31343;47.520;19.144;2024-03-17T14:27:16;15.70;59.00
45619;DHT22;31343;47.520;19.144;2024-03-17T14:29:43;15.60;59.90
45619;DHT22;31343;47.520;19.144;2024-03-17T14:32:09;15.50;60.00
45619;DHT22;31343;47.520;19.144;2024-03-17T14:34:35;15.40;60.90
45619;DHT22;31343;47.520;19.144;2024-03-17T14:37:02;15.20;61.50
45619;DHT22;31343;47.520;19.144;2024-03-17T14:39:32;15.10;61.60
45619;DHT22;31343;47.520;19.144;2024-03-17T14:41:58;15.10;61.50
45619;DHT22;31343;47.520;19.144;2024-03-17T14:44:24;14.90;60.90
45619;DHT22;31343;47.520;19.144;2024-03-17T14:46:50;14.90;61.10
45619;DHT22;31343;47.520;19.144;2024-03-17T14:49:21;14.70;61.60
45619;DHT22;31343;47.520;19.144;2024-03-17T14:51:47;14.70;62.50
45619;DHT22;31343;47.520;19.144;2024-03-17T14:54:13;14.60;62.60
45619;DHT22;31343;47.520;19.144;2024-03-17T14:56:39;14.60;62.20
45619;DHT22;31343;47.520;19.144;2024-03-17T14:59:07;14.50;62.80
45619;DHT22;31343;47.520;19.144;2024-03-17T15:01:33;14.30;63.40
45619;DHT22;31343;47.520;19.144;2024-03-17T15:03:59;14.60;64.50
45619;DHT22;31343;47.520;19.144;2024-03-17T15:06:25;14.20;64.50
45619;DHT22;31343;47.520;19.144;2024-03-17T15:08:52;14.10;65.60
45619;DHT22;31343;47.520;19.144;2024-03-17T15:11:18;14.10;65.80
45619;DHT22;31343;47.520;19.144;2024-03-17T15:13:44;13.90;64.70
45619;DHT22;31343;47.520;19.144;2024-03-17T15:16:11;13.90;65.40
45619;DHT22;31343;47.520;19.144;2024-03-17T15:18:38;13.80;65.10
45619;DHT22;31343;47.520;19.144;2024-03-17T15:21:04;13.90;66.00
45619;DHT22;31343;47.520;19.144;2024-03-17T15:23:32;13.80;65.70
45619;DHT22;31343;47.520;19.144;2024-03-17T15:26:05;13.80;66.00
45619;DHT22;31343;47.520;19.144;2024-03-17T15:28:39;13.80;65.90
45619;DHT22;31343;47.520;19.144;2024-03-17T15:31:10;13.70;65.10
45619;DHT22;31343;47.520;19.144;2024-03-17T15:33:37;13.60;65.40
45619;DHT22;31343;47.520;19.144;2024-03-17T15:36:05;13.50;64.90
45619;DHT22;31343;47.520;19.144;2024-03-17T15:38:32;13.40;65.30
45619;DHT22;31343;47.520;19.144;2024-03-17T15:41:06;13.30;65.20
45619;DHT22;31343;47.520;19.144;2024-03-17T15:43:33;13.30;66.10
45619;DHT22;31343;47.520;19.144;2024-03-17T15:46:00;13.20;66.30
45619;DHT22;31343;47.520;19.144;2024-03-17T15:48:26;13.20;66.60